createdAt,value
2016-10-20T00:00:17.409Z,0
2016-10-20T00:01:28.450Z,0
2016-10-20T00:02:39.173Z,0
2016-10-20T00:03:49.755Z,0
2016-10-20T00:05:00.339Z,0
2016-10-20T00:06:10.906Z,0
2016-10-20T00:07:21.437Z,0
2016-10-20T00:08:32.096Z,0
2016-10-20T00:09:42.643Z,0
2016-10-20T00:10:53.134Z,0
2016-10-20T00:12:03.675Z,0
2016-10-20T00:13:14.303Z,0
2016-10-20T00:14:24.970Z,0
2016-10-20T00:15:35.518Z,0
2016-10-20T00:16:46.053Z,0
2016-10-20T00:17:56.633Z,0
2016-10-20T00:19:07.162Z,0
2016-10-20T00:20:18.277Z,0
2016-10-20T00:21:28.772Z,0
2016-10-20T00:22:39.344Z,0
2016-10-20T00:23:49.905Z,0
2016-10-20T00:25:00.419Z,0
2016-10-20T00:26:10.953Z,0
2016-10-20T00:27:21.516Z,0
2016-10-20T00:28:32.077Z,0
2016-10-20T00:29:42.650Z,0
2016-10-20T00:30:53.203Z,0
2016-10-20T00:32:03.847Z,0
2016-10-20T00:33:14.406Z,0
2016-10-20T00:34:25.022Z,0
2016-10-20T00:35:35.543Z,0
2016-10-20T00:36:46.078Z,0
2016-10-20T00:37:56.611Z,0
2016-10-20T00:39:07.143Z,0
2016-10-20T00:40:18.162Z,0
2016-10-20T00:41:28.740Z,0
2016-10-20T00:42:39.299Z,0
2016-10-20T00:43:49.934Z,0
2016-10-20T00:45:00.474Z,0
2016-10-20T00:46:11.017Z,0
2016-10-20T00:47:21.555Z,0
2016-10-20T00:48:32.136Z,0
2016-10-20T00:49:42.650Z,0
2016-10-20T00:50:53.182Z,0
2016-10-20T00:52:03.747Z,0
2016-10-20T00:53:14.280Z,0
2016-10-20T00:54:24.834Z,0
2016-10-20T00:55:35.443Z,0
2016-10-20T00:56:45.978Z,0
2016-10-20T00:57:56.508Z,0
2016-10-20T00:59:07.070Z,0
2016-10-20T01:00:17.572Z,0
2016-10-20T01:01:28.105Z,0
2016-10-20T01:02:38.628Z,0
2016-10-20T01:03:49.132Z,0
2016-10-20T01:04:59.675Z,0
2016-10-20T01:06:10.189Z,0
2016-10-20T01:07:20.835Z,0
2016-10-20T01:08:31.394Z,0
2016-10-20T01:09:41.927Z,0
2016-10-20T01:10:52.493Z,0
2016-10-20T01:12:02.981Z,0
2016-10-20T01:13:13.495Z,0
2016-10-20T01:14:24.488Z,0
2016-10-20T01:15:35.025Z,0
2016-10-20T01:16:45.620Z,0
2016-10-20T01:17:56.168Z,0
2016-10-20T01:19:06.872Z,0
2016-10-20T01:20:17.416Z,0
2016-10-20T01:21:27.991Z,0
2016-10-20T01:22:38.566Z,0
2016-10-20T01:23:49.091Z,0
2016-10-20T01:24:59.632Z,0
2016-10-20T01:26:10.182Z,0
2016-10-20T01:27:20.722Z,0
2016-10-20T01:28:31.269Z,0
2016-10-20T01:29:41.852Z,0
2016-10-20T01:30:52.407Z,0
2016-10-20T01:32:02.937Z,0
2016-10-20T01:33:13.462Z,0
2016-10-20T01:34:24.460Z,0
2016-10-20T01:35:34.991Z,0
2016-10-20T01:36:45.589Z,0
2016-10-20T01:37:56.105Z,0
2016-10-20T01:39:06.684Z,0
2016-10-20T01:40:17.297Z,0
2016-10-20T01:41:27.817Z,0
2016-10-20T01:42:38.738Z,0
2016-10-20T01:43:49.202Z,0
2016-10-20T01:45:00.677Z,0
2016-10-20T01:46:11.232Z,0
2016-10-20T01:47:21.813Z,0
2016-10-20T01:48:32.488Z,0
2016-10-20T01:49:42.999Z,0
2016-10-20T01:50:53.546Z,0
2016-10-20T01:52:04.088Z,0
2016-10-20T01:53:14.621Z,0
2016-10-20T01:54:25.198Z,0
2016-10-20T01:55:35.681Z,0
2016-10-20T01:56:46.249Z,0
2016-10-20T01:57:56.814Z,0
2016-10-20T01:59:07.345Z,0
2016-10-20T02:00:17.993Z,0
2016-10-20T02:01:28.538Z,0
2016-10-20T02:02:39.090Z,0
2016-10-20T02:03:49.671Z,0
2016-10-20T02:05:00.247Z,0
2016-10-20T02:06:10.864Z,0
2016-10-20T02:07:21.374Z,0
2016-10-20T02:08:31.896Z,0
2016-10-20T02:09:42.387Z,0
2016-10-20T02:10:52.917Z,0
2016-10-20T02:12:03.394Z,0
2016-10-20T02:13:13.894Z,0
2016-10-20T02:14:24.418Z,0
2016-10-20T02:15:34.938Z,0
2016-10-20T02:16:45.519Z,0
2016-10-20T02:17:56.073Z,0
2016-10-20T02:19:06.624Z,0
2016-10-20T02:20:17.178Z,0
2016-10-20T02:21:27.755Z,0
2016-10-20T02:22:38.331Z,0
2016-10-20T02:23:48.981Z,0
2016-10-20T02:24:59.514Z,0
2016-10-20T02:26:10.052Z,0
2016-10-20T02:27:20.613Z,0
2016-10-20T02:28:31.174Z,0
2016-10-20T02:29:41.848Z,0
2016-10-20T02:30:52.373Z,0
2016-10-20T02:32:02.947Z,0
2016-10-20T02:33:13.470Z,0
2016-10-20T02:34:24.054Z,0
2016-10-20T02:35:34.597Z,0
2016-10-20T02:36:45.154Z,0
2016-10-20T02:37:55.728Z,0
2016-10-20T02:39:06.292Z,0
2016-10-20T02:40:16.841Z,0
2016-10-20T02:41:27.376Z,0
2016-10-20T02:42:37.963Z,0
2016-10-20T02:43:48.457Z,0
2016-10-20T02:44:59.031Z,0
2016-10-20T02:46:09.614Z,0
2016-10-20T02:47:20.121Z,0
2016-10-20T02:48:30.675Z,0
2016-10-20T02:49:41.726Z,0
2016-10-20T02:50:52.270Z,0
2016-10-20T02:52:02.826Z,0
2016-10-20T02:53:13.968Z,0
2016-10-20T02:54:24.515Z,0
2016-10-20T02:55:35.089Z,0
2016-10-20T02:56:45.626Z,0
2016-10-20T02:57:56.208Z,0
2016-10-20T02:59:06.771Z,0
2016-10-20T03:00:17.331Z,0
2016-10-20T03:01:27.868Z,0
2016-10-20T03:02:38.399Z,0
2016-10-20T03:03:48.942Z,0
2016-10-20T03:04:59.576Z,0
2016-10-20T03:06:10.083Z,0
2016-10-20T03:07:20.600Z,0
2016-10-20T03:08:31.101Z,0
2016-10-20T03:09:41.677Z,0
2016-10-20T03:10:52.191Z,0
2016-10-20T03:12:02.738Z,0
2016-10-20T03:13:13.761Z,0
2016-10-20T03:14:24.303Z,0
2016-10-20T03:15:34.826Z,0
2016-10-20T03:16:45.438Z,0
2016-10-20T03:17:55.988Z,0
2016-10-20T03:19:06.495Z,0
2016-10-20T03:20:17.038Z,0
2016-10-20T03:21:27.580Z,0
2016-10-20T03:22:38.074Z,0
2016-10-20T03:23:48.620Z,0
2016-10-20T03:24:59.141Z,0
2016-10-20T03:26:09.659Z,0
2016-10-20T03:27:20.731Z,0
2016-10-20T03:28:31.911Z,0
2016-10-20T03:29:42.432Z,0
2016-10-20T03:30:52.973Z,0
2016-10-20T03:32:03.515Z,0
2016-10-20T03:33:14.085Z,0
2016-10-20T03:34:25.133Z,0
2016-10-20T03:35:35.654Z,0
2016-10-20T03:36:46.213Z,0
2016-10-20T03:37:56.746Z,0
2016-10-20T03:39:07.261Z,0
2016-10-20T03:40:17.902Z,0
2016-10-20T03:41:28.459Z,0
2016-10-20T03:42:39.035Z,0
2016-10-20T03:43:49.562Z,0
2016-10-20T03:45:00.075Z,0
2016-10-20T03:46:10.618Z,0
2016-10-20T03:47:21.161Z,0
2016-10-20T03:48:31.720Z,0
2016-10-20T03:49:42.253Z,0
2016-10-20T03:50:52.790Z,0
2016-10-20T03:52:03.402Z,0
2016-10-20T03:53:13.880Z,0
2016-10-20T03:54:24.431Z,0
2016-10-20T03:55:34.943Z,0
2016-10-20T03:56:45.455Z,0
2016-10-20T03:57:56.489Z,0
2016-10-20T03:59:07.043Z,0
2016-10-20T04:00:17.564Z,0
2016-10-20T04:01:28.127Z,0
2016-10-20T04:02:38.637Z,0
2016-10-20T04:03:49.274Z,0
2016-10-20T04:04:59.790Z,0
2016-10-20T04:06:10.277Z,0
2016-10-20T04:07:20.825Z,0
2016-10-20T04:08:31.368Z,0
2016-10-20T04:09:41.843Z,0
2016-10-20T04:10:52.332Z,0
2016-10-20T04:12:02.821Z,0
2016-10-20T04:13:13.300Z,0
2016-10-20T04:14:23.804Z,0
2016-10-20T04:15:34.386Z,0
2016-10-20T04:16:44.902Z,0
2016-10-20T04:17:55.441Z,0
2016-10-20T04:19:05.922Z,0
2016-10-20T04:20:16.423Z,0
2016-10-20T04:21:26.940Z,0
2016-10-20T04:22:37.453Z,0
2016-10-20T04:23:47.954Z,0
2016-10-20T04:24:58.479Z,0
2016-10-20T04:26:09.022Z,0
2016-10-20T04:27:19.659Z,0
2016-10-20T04:28:30.164Z,0
2016-10-20T04:29:40.640Z,0
2016-10-20T04:30:51.159Z,0
2016-10-20T04:32:01.652Z,0
2016-10-20T04:33:12.161Z,0
2016-10-20T04:34:22.667Z,0
2016-10-20T04:35:33.153Z,0
2016-10-20T04:36:43.687Z,0
2016-10-20T04:37:54.169Z,0
2016-10-20T04:39:04.809Z,0
2016-10-20T04:40:15.374Z,0
2016-10-20T04:41:25.857Z,0
2016-10-20T04:42:36.402Z,0
2016-10-20T04:43:46.993Z,0
2016-10-20T04:44:57.507Z,0
2016-10-20T04:46:08.008Z,0
2016-10-20T04:47:18.853Z,0
2016-10-20T04:48:29.339Z,0
2016-10-20T04:49:39.822Z,0
2016-10-20T04:50:50.437Z,0
2016-10-20T04:52:00.919Z,0
2016-10-20T04:53:11.984Z,0
2016-10-20T04:54:22.508Z,0
2016-10-20T04:55:32.966Z,0
2016-10-20T04:56:43.554Z,0
2016-10-20T04:57:54.071Z,0
2016-10-20T04:59:04.565Z,0
2016-10-20T05:00:15.092Z,0
2016-10-20T05:01:25.617Z,0
2016-10-20T05:02:36.177Z,0
2016-10-20T05:03:46.660Z,0
2016-10-20T05:04:57.146Z,0
2016-10-20T05:06:07.680Z,0
2016-10-20T05:07:18.173Z,0
2016-10-20T05:08:28.786Z,0
2016-10-20T05:09:39.330Z,0
2016-10-20T05:10:49.806Z,0
2016-10-20T05:12:00.364Z,0
2016-10-20T05:13:10.870Z,0
2016-10-20T05:14:21.413Z,0
2016-10-20T05:15:31.967Z,0
2016-10-20T05:16:42.532Z,0
2016-10-20T05:17:53.093Z,0
2016-10-20T05:19:03.611Z,0
2016-10-20T05:20:14.345Z,0
2016-10-20T05:21:24.832Z,0
2016-10-20T05:22:35.367Z,0
2016-10-20T05:23:45.927Z,0
2016-10-20T05:24:56.489Z,0
2016-10-20T05:26:07.153Z,0
2016-10-20T05:27:17.709Z,0
2016-10-20T05:28:28.267Z,0
2016-10-20T05:29:38.804Z,0
2016-10-20T05:30:49.380Z,0
2016-10-20T05:31:59.914Z,0
2016-10-20T05:33:10.467Z,0
2016-10-20T05:34:20.997Z,0
2016-10-20T05:35:31.564Z,0
2016-10-20T05:36:42.209Z,0
2016-10-20T05:37:52.853Z,0
2016-10-20T05:39:03.432Z,0
2016-10-20T05:40:13.981Z,0
2016-10-20T05:41:24.507Z,0
2016-10-20T05:42:35.020Z,0
2016-10-20T05:43:45.549Z,0
2016-10-20T05:44:56.031Z,0
2016-10-20T05:46:06.530Z,0
2016-10-20T05:47:17.058Z,0
2016-10-20T05:48:27.520Z,0
2016-10-20T05:49:38.137Z,0
2016-10-20T05:50:48.638Z,0
2016-10-20T05:51:59.209Z,0
2016-10-20T05:53:09.692Z,0
2016-10-20T05:54:20.207Z,0
2016-10-20T05:55:30.683Z,0
2016-10-20T05:56:41.161Z,0
2016-10-20T05:57:51.678Z,0
2016-10-20T05:59:02.668Z,0
2016-10-20T06:00:13.137Z,0
2016-10-20T06:01:23.769Z,0
2016-10-20T06:02:34.261Z,0
2016-10-20T06:03:44.750Z,0
2016-10-20T06:04:55.273Z,0
2016-10-20T06:06:05.759Z,0
2016-10-20T06:07:16.243Z,0
2016-10-20T06:08:27.207Z,0
2016-10-20T06:09:37.733Z,0
2016-10-20T06:10:48.245Z,0
2016-10-20T06:11:58.747Z,0
2016-10-20T06:13:09.339Z,0
2016-10-20T06:14:19.824Z,0
2016-10-20T06:15:30.351Z,0
2016-10-20T06:16:40.838Z,0
2016-10-20T06:17:51.351Z,0
2016-10-20T06:19:01.914Z,0
2016-10-20T06:20:12.488Z,0
2016-10-20T06:21:23.062Z,0
2016-10-20T06:22:33.650Z,0
2016-10-20T06:23:44.217Z,0
2016-10-20T06:24:54.891Z,0
2016-10-20T06:26:05.482Z,0
2016-10-20T06:27:16.070Z,0
2016-10-20T06:28:26.653Z,0
2016-10-20T06:29:37.217Z,0
2016-10-20T06:30:47.801Z,0
2016-10-20T06:31:58.379Z,0
2016-10-20T06:33:09.451Z,0
2016-10-20T06:34:20.021Z,0
2016-10-20T06:35:30.700Z,0
2016-10-20T06:36:41.443Z,0
2016-10-20T06:37:52.036Z,0
2016-10-20T06:39:02.610Z,0
2016-10-20T06:40:13.178Z,0
2016-10-20T06:41:23.753Z,0
2016-10-20T06:42:34.398Z,0
2016-10-20T06:43:45.011Z,0
2016-10-20T06:44:55.583Z,0
2016-10-20T06:46:06.153Z,0
2016-10-20T06:47:16.724Z,0
2016-10-20T06:48:27.404Z,0
2016-10-20T06:49:37.975Z,0
2016-10-20T06:50:48.553Z,0
2016-10-20T06:51:59.036Z,0
2016-10-20T06:53:10.070Z,0
2016-10-20T06:54:20.587Z,0
2016-10-20T06:55:31.066Z,0
2016-10-20T06:56:41.548Z,0
2016-10-20T06:57:52.059Z,0
2016-10-20T06:59:02.537Z,0
2016-10-20T07:00:13.086Z,0
2016-10-20T07:01:23.598Z,0
2016-10-20T07:02:34.111Z,0
2016-10-20T07:03:44.585Z,0
2016-10-20T07:04:55.084Z,0
2016-10-20T07:06:05.565Z,0
2016-10-20T07:07:16.064Z,0
2016-10-20T07:08:27.042Z,0
2016-10-20T07:09:37.534Z,0
2016-10-20T07:10:48.026Z,0
2016-10-20T07:11:58.648Z,0
2016-10-20T07:13:09.173Z,0
2016-10-20T07:14:19.708Z,0
2016-10-20T07:15:30.621Z,0
2016-10-20T07:16:41.113Z,0
2016-10-20T07:17:51.609Z,0
2016-10-20T07:19:02.079Z,0
2016-10-20T07:20:12.579Z,0
2016-10-20T07:21:23.041Z,0
2016-10-20T07:22:33.534Z,0
2016-10-20T07:23:44.121Z,0
2016-10-20T07:24:54.605Z,0
2016-10-20T07:26:05.660Z,0
2016-10-20T07:27:16.203Z,0
2016-10-20T07:28:26.772Z,0
2016-10-20T07:29:37.339Z,0
2016-10-20T07:30:47.891Z,0
2016-10-20T07:31:58.429Z,0
2016-10-20T07:33:08.983Z,0
2016-10-20T07:34:19.514Z,0
2016-10-20T07:35:30.159Z,0
2016-10-20T07:36:40.720Z,0
2016-10-20T07:37:51.252Z,0
2016-10-20T07:39:01.789Z,0
2016-10-20T07:40:12.353Z,0
2016-10-20T07:41:23.445Z,0
2016-10-20T07:42:34.023Z,0
2016-10-20T07:43:44.573Z,0
2016-10-20T07:44:55.127Z,0
2016-10-20T07:46:05.661Z,0
2016-10-20T07:47:16.249Z,0
2016-10-20T07:48:26.823Z,0
2016-10-20T07:49:37.392Z,0
2016-10-20T07:50:47.953Z,0
2016-10-20T07:51:58.976Z,0
2016-10-20T07:53:09.612Z,0
2016-10-20T07:54:20.143Z,0
2016-10-20T07:55:30.674Z,0
2016-10-20T07:56:41.227Z,0
2016-10-20T07:57:51.784Z,0
2016-10-20T07:59:02.342Z,0
2016-10-20T08:00:12.888Z,0
2016-10-20T08:01:23.458Z,0
2016-10-20T08:02:34.008Z,0
2016-10-20T08:03:44.580Z,0
2016-10-20T08:04:55.072Z,0
2016-10-20T08:06:05.619Z,0
2016-10-20T08:07:16.192Z,0
2016-10-20T08:08:26.767Z,0
2016-10-20T08:09:37.352Z,0
2016-10-20T08:10:48.026Z,0
2016-10-20T08:11:58.539Z,0
2016-10-20T08:13:09.084Z,0
2016-10-20T08:14:19.620Z,0
2016-10-20T08:15:30.136Z,0
2016-10-20T08:16:40.809Z,0
2016-10-20T08:17:51.346Z,0
2016-10-20T08:19:01.883Z,0
2016-10-20T08:20:12.421Z,0
2016-10-20T08:21:22.934Z,0
2016-10-20T08:22:33.459Z,0
2016-10-20T08:23:44.013Z,0
2016-10-20T08:24:55.082Z,0
2016-10-20T08:26:05.657Z,0
2016-10-20T08:27:16.199Z,0
2016-10-20T08:28:26.808Z,5
2016-10-20T08:29:37.409Z,5
2016-10-20T08:30:47.929Z,5
2016-10-20T08:31:58.401Z,5
2016-10-20T08:33:08.902Z,5
2016-10-20T08:34:19.513Z,5
2016-10-20T08:35:29.985Z,5
2016-10-20T08:36:40.490Z,5
2016-10-20T08:37:50.993Z,5
2016-10-20T08:39:01.512Z,5
2016-10-20T08:40:11.971Z,0
2016-10-20T08:41:22.470Z,0
2016-10-20T08:42:32.933Z,0
2016-10-20T08:43:43.405Z,0
2016-10-20T08:44:53.911Z,0
2016-10-20T08:46:04.508Z,0
2016-10-20T08:47:15.005Z,0
2016-10-20T08:48:25.477Z,0
2016-10-20T08:49:35.983Z,5
2016-10-20T08:50:46.438Z,10
2016-10-20T08:51:57.062Z,15
2016-10-20T08:53:07.565Z,15
2016-10-20T08:54:18.547Z,10
2016-10-20T08:55:29.021Z,10
2016-10-20T08:56:39.474Z,5
2016-10-20T08:57:49.982Z,5
2016-10-20T08:59:00.480Z,5
2016-10-20T09:00:11.418Z,5
2016-10-20T09:01:21.943Z,5
2016-10-20T09:02:32.452Z,5
2016-10-20T09:03:43.021Z,10
2016-10-20T09:04:53.501Z,10
2016-10-20T09:06:04.007Z,10
2016-10-20T09:07:14.534Z,10
2016-10-20T09:08:25.014Z,10
2016-10-20T09:09:35.475Z,10
2016-10-20T09:10:45.942Z,5
2016-10-20T09:11:56.463Z,5
2016-10-20T09:13:06.977Z,5
2016-10-20T09:14:17.424Z,5
2016-10-20T09:15:28.048Z,5
2016-10-20T09:16:38.520Z,5
2016-10-20T09:17:49.554Z,5
2016-10-20T09:19:00.096Z,5
2016-10-20T09:20:10.609Z,5
2016-10-20T09:21:21.157Z,5
2016-10-20T09:22:31.630Z,5
2016-10-20T09:23:42.085Z,5
2016-10-20T09:24:53.087Z,5
2016-10-20T09:26:03.538Z,5
2016-10-20T09:27:14.064Z,5
2016-10-20T09:28:24.566Z,5
2016-10-20T09:29:35.109Z,5
2016-10-20T09:30:45.614Z,5
2016-10-20T09:31:56.102Z,5
2016-10-20T09:33:06.831Z,10
2016-10-20T09:34:17.302Z,10
2016-10-20T09:35:27.825Z,10
2016-10-20T09:36:38.327Z,15
2016-10-20T09:37:48.838Z,20
2016-10-20T09:38:59.489Z,25
2016-10-20T09:40:10.019Z,30
2016-10-20T09:41:20.576Z,35
2016-10-20T09:42:31.111Z,35
2016-10-20T09:43:41.640Z,40
2016-10-20T09:44:52.312Z,40
2016-10-20T09:46:02.842Z,45
2016-10-20T09:47:13.417Z,45
2016-10-20T09:48:23.960Z,50
2016-10-20T09:49:34.446Z,50
2016-10-20T09:50:45.068Z,50
2016-10-20T09:51:55.581Z,50
2016-10-20T09:53:06.149Z,50
2016-10-20T09:54:16.669Z,50
2016-10-20T09:55:27.219Z,50
2016-10-20T09:56:37.762Z,50
2016-10-20T09:57:48.274Z,55
2016-10-20T09:58:58.797Z,55
2016-10-20T10:00:09.306Z,55
2016-10-20T10:01:19.908Z,60
2016-10-20T10:02:30.408Z,70
2016-10-20T10:03:40.942Z,75
2016-10-20T10:04:51.506Z,85
2016-10-20T10:06:02.041Z,95
2016-10-20T10:07:12.559Z,105
2016-10-20T10:08:23.268Z,115
2016-10-20T10:09:33.852Z,130
2016-10-20T10:10:44.403Z,140
2016-10-20T10:11:54.944Z,150
2016-10-20T10:13:05.473Z,160
2016-10-20T10:14:15.940Z,170
2016-10-20T10:15:26.432Z,175
2016-10-20T10:16:36.999Z,180
2016-10-20T10:17:47.462Z,185
2016-10-20T10:18:57.942Z,185
2016-10-20T10:20:08.589Z,190
2016-10-20T10:21:19.045Z,195
2016-10-20T10:22:29.534Z,200
2016-10-20T10:23:40.023Z,205
2016-10-20T10:24:50.543Z,215
2016-10-20T10:26:01.143Z,225
2016-10-20T10:27:11.643Z,235
2016-10-20T10:28:22.099Z,240
2016-10-20T10:29:32.618Z,250
2016-10-20T10:30:43.124Z,250
2016-10-20T10:31:53.630Z,260
2016-10-20T10:33:04.248Z,275
2016-10-20T10:34:14.747Z,285
2016-10-20T10:35:25.261Z,300
2016-10-20T10:36:35.746Z,315
2016-10-20T10:37:46.359Z,335
2016-10-20T10:38:56.826Z,370
2016-10-20T10:40:07.328Z,420
2016-10-20T10:41:17.841Z,515
2016-10-20T10:42:28.329Z,730
2016-10-20T10:43:38.814Z,965
2016-10-20T10:44:49.357Z,1085
2016-10-20T10:45:59.852Z,1020
2016-10-20T10:47:10.849Z,850
2016-10-20T10:48:21.338Z,1005
2016-10-20T10:49:31.943Z,1100
2016-10-20T10:50:42.454Z,1055
2016-10-20T10:51:52.914Z,1050
2016-10-20T10:53:03.468Z,1000
2016-10-20T10:54:13.951Z,1110
2016-10-20T10:55:24.587Z,1170
2016-10-20T10:56:35.092Z,1290
2016-10-20T10:57:45.553Z,630
2016-10-20T10:58:56.121Z,1210
2016-10-20T11:00:06.630Z,1265
2016-10-20T11:01:17.123Z,1315
2016-10-20T11:02:27.742Z,1390
2016-10-20T11:03:38.547Z,1450
2016-10-20T11:04:49.312Z,1435
2016-10-20T11:06:00.493Z,1400
2016-10-20T11:07:11.438Z,1505
2016-10-20T11:08:22.191Z,1470
2016-10-20T11:09:32.921Z,1500
2016-10-20T11:10:43.702Z,1485
2016-10-20T11:11:54.439Z,1475
2016-10-20T11:13:05.396Z,1480
2016-10-20T11:14:16.226Z,1580
2016-10-20T11:15:27.154Z,1595
2016-10-20T11:16:38.513Z,1580
2016-10-20T11:17:49.381Z,1575
2016-10-20T11:19:00.298Z,1660
2016-10-20T11:20:11.697Z,1620
2016-10-20T11:21:22.520Z,1575
2016-10-20T11:22:33.369Z,1645
2016-10-20T11:23:44.466Z,1705
2016-10-20T11:24:55.830Z,1755
2016-10-20T11:26:06.710Z,1685
2016-10-20T11:27:17.644Z,1600
2016-10-20T11:28:28.550Z,1615
2016-10-20T11:29:39.886Z,1700
2016-10-20T11:30:50.710Z,1655
2016-10-20T11:32:01.599Z,1680
2016-10-20T11:33:12.479Z,1650
2016-10-20T11:34:23.367Z,1640
2016-10-20T11:35:34.224Z,1580
2016-10-20T11:36:45.189Z,1520
2016-10-20T11:37:56.084Z,1510
2016-10-20T11:39:06.915Z,1515
2016-10-20T11:40:17.776Z,1635
2016-10-20T11:41:28.549Z,1650
2016-10-20T11:42:39.554Z,1705
2016-10-20T11:43:50.307Z,1655
2016-10-20T11:45:00.938Z,1720
2016-10-20T11:46:11.692Z,1725
2016-10-20T11:47:22.327Z,1740
2016-10-20T11:48:33.088Z,1725
2016-10-20T11:49:43.818Z,1720
2016-10-20T11:50:54.503Z,1785
2016-10-20T11:52:05.930Z,1760
2016-10-20T11:53:16.566Z,1745
2016-10-20T11:54:27.473Z,1725
2016-10-20T11:55:38.341Z,1785
2016-10-20T11:56:49.184Z,1790
2016-10-20T11:58:00.426Z,1670
2016-10-20T11:59:11.224Z,1745
2016-10-20T12:00:22.099Z,1815
2016-10-20T12:01:32.928Z,1815
2016-10-20T12:02:43.612Z,1850
2016-10-20T12:03:54.400Z,1865
2016-10-20T12:05:05.173Z,1805
2016-10-20T12:06:15.887Z,1860
2016-10-20T12:07:26.521Z,1875
2016-10-20T12:08:37.112Z,1895
2016-10-20T12:09:47.892Z,1830
2016-10-20T12:10:58.645Z,1870
2016-10-20T12:12:09.544Z,1905
2016-10-20T12:13:20.259Z,1870
2016-10-20T12:14:30.843Z,1870
2016-10-20T12:15:41.438Z,1905
2016-10-20T12:16:52.021Z,1950
2016-10-20T12:18:02.601Z,1955
2016-10-20T12:19:13.189Z,1935
2016-10-20T12:20:23.777Z,1895
2016-10-20T12:21:34.878Z,1915
2016-10-20T12:22:45.473Z,1995
2016-10-20T12:23:56.168Z,1960
2016-10-20T12:25:06.759Z,1945
2016-10-20T12:26:17.294Z,1960
2016-10-20T12:27:27.889Z,1995
2016-10-20T12:28:38.388Z,1980
2016-10-20T12:29:49.075Z,2005
2016-10-20T12:30:59.602Z,2040
2016-10-20T12:32:10.236Z,1990
2016-10-20T12:33:21.566Z,1965
2016-10-20T12:34:32.137Z,1990
2016-10-20T12:35:42.786Z,2015
2016-10-20T12:36:53.335Z,2040
2016-10-20T12:38:03.947Z,2080
2016-10-20T12:39:14.501Z,2060
2016-10-20T12:40:25.069Z,2060
2016-10-20T12:41:35.616Z,2095
2016-10-20T12:42:46.620Z,2110
2016-10-20T12:43:57.170Z,2110
2016-10-20T12:45:08.186Z,2100
2016-10-20T12:46:18.770Z,2065
2016-10-20T12:47:29.953Z,2130
2016-10-20T12:48:40.566Z,2080
2016-10-20T12:49:51.131Z,2045
2016-10-20T12:51:01.699Z,2070
2016-10-20T12:52:12.243Z,2110
2016-10-20T12:53:22.779Z,2115
2016-10-20T12:54:33.310Z,2145
2016-10-20T12:55:44.822Z,2175
2016-10-20T12:56:55.404Z,2140
2016-10-20T12:58:05.960Z,2090
2016-10-20T12:59:16.568Z,2165
2016-10-20T13:00:27.074Z,2095
2016-10-20T13:01:38.416Z,2135
2016-10-20T13:02:48.912Z,2110
2016-10-20T13:03:59.416Z,2150
2016-10-20T13:05:10.506Z,2150
2016-10-20T13:06:20.974Z,2110
2016-10-20T13:07:31.516Z,2100
2016-10-20T13:08:41.984Z,2130
2016-10-20T13:09:52.480Z,2145
2016-10-20T13:11:03.087Z,2130
2016-10-20T13:12:14.086Z,2145
2016-10-20T13:13:24.593Z,2190
2016-10-20T13:14:35.093Z,2230
2016-10-20T13:15:45.599Z,2120
2016-10-20T13:16:56.112Z,2175
2016-10-20T13:18:06.611Z,2250
2016-10-20T13:19:17.599Z,2290
2016-10-20T13:20:28.115Z,2275
2016-10-20T13:21:38.641Z,2240
2016-10-20T13:22:49.248Z,2200
2016-10-20T13:23:59.733Z,2205
2016-10-20T13:25:10.243Z,2185
2016-10-20T13:26:20.782Z,2210
2016-10-20T13:27:31.743Z,2175
2016-10-20T13:28:42.300Z,2255
2016-10-20T13:29:52.845Z,2220
2016-10-20T13:31:03.381Z,2185
2016-10-20T13:32:13.865Z,2235
2016-10-20T13:33:24.354Z,2240
2016-10-20T13:34:34.996Z,2320
2016-10-20T13:35:46.026Z,2175
2016-10-20T13:36:56.548Z,2200
2016-10-20T13:38:07.095Z,2365
2016-10-20T13:39:17.616Z,2245
2016-10-20T13:40:28.293Z,2220
2016-10-20T13:41:38.848Z,2225
2016-10-20T13:42:49.350Z,2170
2016-10-20T13:43:59.863Z,2315
2016-10-20T13:45:10.772Z,2275
2016-10-20T13:46:21.432Z,2285
2016-10-20T13:47:31.918Z,2255
2016-10-20T13:48:42.446Z,2275
2016-10-20T13:49:52.955Z,2275
2016-10-20T13:51:03.454Z,2265
2016-10-20T13:52:13.984Z,2305
2016-10-20T13:53:24.507Z,2325
2016-10-20T13:54:35.032Z,2270
2016-10-20T13:55:45.563Z,2205
2016-10-20T13:56:56.030Z,2400
2016-10-20T13:58:06.612Z,2315
2016-10-20T13:59:17.110Z,2220
2016-10-20T14:00:27.583Z,2420
2016-10-20T14:01:38.078Z,2335
2016-10-20T14:02:48.580Z,2060
2016-10-20T14:03:59.205Z,2455
2016-10-20T14:05:09.742Z,2440
2016-10-20T14:06:20.247Z,1970
2016-10-20T14:07:30.825Z,2110
2016-10-20T14:08:41.379Z,1640
2016-10-20T14:09:51.934Z,2125
2016-10-20T14:11:02.457Z,2145
2016-10-20T14:12:13.037Z,2130
2016-10-20T14:13:23.637Z,2220
2016-10-20T14:14:34.163Z,2165
2016-10-20T14:15:44.854Z,2110
2016-10-20T14:16:55.358Z,2165
2016-10-20T14:18:05.933Z,2230
2016-10-20T14:19:16.524Z,2290
2016-10-20T14:20:27.023Z,2265
2016-10-20T14:21:37.668Z,2285
2016-10-20T14:22:48.190Z,1980
2016-10-20T14:23:58.792Z,2105
2016-10-20T14:25:09.287Z,1980
2016-10-20T14:26:19.870Z,2315
2016-10-20T14:27:30.439Z,2335
2016-10-20T14:28:41.516Z,2255
2016-10-20T14:29:52.051Z,2260
2016-10-20T14:31:02.569Z,2275
2016-10-20T14:32:13.135Z,2220
2016-10-20T14:33:24.247Z,2200
2016-10-20T14:34:34.840Z,2265
2016-10-20T14:35:45.382Z,2300
2016-10-20T14:36:55.968Z,2205
2016-10-20T14:38:07.077Z,2225
2016-10-20T14:39:17.612Z,2080
2016-10-20T14:40:28.196Z,2240
2016-10-20T14:41:38.750Z,2115
2016-10-20T14:42:49.797Z,2170
2016-10-20T14:44:00.373Z,2240
2016-10-20T14:45:11.042Z,2055
2016-10-20T14:46:21.628Z,2270
2016-10-20T14:47:32.178Z,2125
2016-10-20T14:48:42.765Z,1540
2016-10-20T14:49:53.854Z,2255
2016-10-20T14:51:04.398Z,2210
2016-10-20T14:52:14.971Z,2155
2016-10-20T14:53:25.578Z,2225
2016-10-20T14:54:36.148Z,2230
2016-10-20T14:55:46.743Z,2140
2016-10-20T14:56:57.389Z,2210
2016-10-20T14:58:08.405Z,2230
2016-10-20T14:59:18.976Z,2195
2016-10-20T15:00:29.539Z,2160
2016-10-20T15:01:40.113Z,2140
2016-10-20T15:02:50.774Z,2040
2016-10-20T15:04:20.574Z,2160
2016-10-20T15:05:31.121Z,2135
2016-10-20T15:06:42.187Z,2060
2016-10-20T15:07:52.717Z,2095
2016-10-20T15:09:03.296Z,2165
2016-10-20T15:10:13.879Z,2130
2016-10-20T15:11:24.463Z,2090
2016-10-20T15:12:35.521Z,2015
2016-10-20T15:13:46.205Z,2055
2016-10-20T15:14:56.737Z,2085
2016-10-20T15:16:07.300Z,2055
2016-10-20T15:17:17.856Z,2095
2016-10-20T15:18:28.428Z,2095
2016-10-20T15:19:39.048Z,1970
2016-10-20T15:20:49.601Z,2065
2016-10-20T15:22:00.153Z,2110
2016-10-20T15:23:10.733Z,2125
2016-10-20T15:24:21.307Z,2065
2016-10-20T15:25:31.870Z,2115
2016-10-20T15:26:42.379Z,2015
2016-10-20T15:27:52.949Z,2100
2016-10-20T15:29:03.963Z,2060
2016-10-20T15:30:14.514Z,2045
2016-10-20T15:31:25.791Z,2045
2016-10-20T15:32:36.363Z,2040
2016-10-20T15:33:46.940Z,2030
2016-10-20T15:34:57.970Z,2030
2016-10-20T15:36:08.544Z,2010
2016-10-20T15:37:19.080Z,1995
2016-10-20T15:38:29.640Z,1945
2016-10-20T15:39:40.696Z,1925
2016-10-20T15:40:51.238Z,1935
2016-10-20T15:42:01.794Z,1920
2016-10-20T15:43:12.316Z,1910
2016-10-20T15:44:22.900Z,1900
2016-10-20T15:45:33.480Z,1960
2016-10-20T15:46:44.033Z,1875
2016-10-20T15:47:54.623Z,1860
2016-10-20T15:49:05.174Z,1760
2016-10-20T15:50:15.700Z,1700
2016-10-20T15:51:26.281Z,1785
2016-10-20T15:52:36.881Z,1915
2016-10-20T15:53:47.447Z,1885
2016-10-20T15:54:58.028Z,1885
2016-10-20T15:56:08.617Z,1900
2016-10-20T15:57:19.199Z,1885
2016-10-20T15:58:29.771Z,1820
2016-10-20T15:59:40.356Z,1865
2016-10-20T16:00:51.019Z,1780
2016-10-20T16:02:01.637Z,1775
2016-10-20T16:03:12.213Z,1865
2016-10-20T16:04:22.787Z,1820
2016-10-20T16:05:33.393Z,1870
2016-10-20T16:06:44.059Z,1800
2016-10-20T16:07:54.609Z,1825
2016-10-20T16:09:05.894Z,1815
2016-10-20T16:10:16.460Z,1795
2016-10-20T16:11:27.003Z,1760
2016-10-20T16:12:37.659Z,1785
2016-10-20T16:13:48.174Z,1750
2016-10-20T16:14:58.732Z,1785
2016-10-20T16:16:09.307Z,1740
2016-10-20T16:17:19.892Z,1745
2016-10-20T16:18:30.478Z,1770
2016-10-20T16:19:41.008Z,1695
2016-10-20T16:20:51.526Z,1755
2016-10-20T16:22:02.076Z,1665
2016-10-20T16:23:12.646Z,1700
2016-10-20T16:24:23.277Z,1715
2016-10-20T16:25:33.862Z,1570
2016-10-20T16:26:44.369Z,1675
2016-10-20T16:27:55.364Z,1615
2016-10-20T16:29:06.371Z,1555
2016-10-20T16:30:16.975Z,1570
2016-10-20T16:31:27.560Z,1670
2016-10-20T16:32:38.088Z,1705
2016-10-20T16:33:48.653Z,1740
2016-10-20T16:34:59.203Z,1670
2016-10-20T16:36:09.773Z,1620
2016-10-20T16:37:20.330Z,1655
2016-10-20T16:38:30.933Z,1640
2016-10-20T16:39:41.519Z,1655